Time;durP1;ratioP1;P1;durP2;ratioP2;P2;SDS_P1;SDS_P2;PMS_P1;PMS_P2;Temp;Humidity;BMP_temperature;BMP_pressure;BME280_temperature;BME280_humidity;BME280_pressure;Samples;Min_cycle;Max_cycle;Signal;HPM_P1;HPM_P2
2022/05/12 00:01:58;;;;;;;4.88;1.20;;;;;;;;;;5064461;28;20039;-72
2022/05/12 00:04:24;;;;;;;2.10;1.17;;;;;;;;;;5065999;28;20024;-72
2022/05/12 00:06:49;;;;;;;1.33;1.10;;;;;;;;;;5064894;28;20471;-72
2022/05/12 00:09:15;;;;;;;1.58;1.13;;;;;;;;;;5063637;28;20089;-73
2022/05/12 00:11:40;;;;;;;3.05;1.08;;;;;;;;;;5058375;28;20029;-73
2022/05/12 00:14:05;;;;;;;3.05;1.48;;;;;;;;;;5062088;28;20059;-71
2022/05/12 00:16:31;;;;;;;4.32;1.60;;;;;;;;;;5054592;28;20682;-72
2022/05/12 00:18:56;;;;;;;2.15;1.30;;;;;;;;;;5058235;28;20028;-73
2022/05/12 00:21:21;;;;;;;1.45;0.90;;;;;;;;;;5063147;28;20078;-72
2022/05/12 00:23:56;;;;;;;1.67;1.20;;;;;;;;;;5055407;28;20486;-72
2022/05/12 00:26:33;;;;;;;3.22;1.20;;;;;;;;;;5064356;28;20040;-74
2022/05/12 00:29:00;;;;;;;5.20;1.45;;;;;;;;;;5064073;28;20158;-72
2022/05/12 00:31:27;;;;;;;4.35;1.33;;;;;;;;;;5063935;28;20182;-72
2022/05/12 00:33:52;;;;;;;2.05;1.20;;;;;;;;;;5067975;28;20492;-73
2022/05/12 00:36:18;;;;;;;2.00;1.40;;;;;;;;;;5062239;28;20045;-73
2022/05/12 00:38:43;;;;;;;1.20;1.08;;;;;;;;;;5061246;28;20033;-72
2022/05/12 00:41:09;;;;;;;4.82;1.40;;;;;;;;;;5062505;28;20035;-73
2022/05/12 00:43:37;;;;;;;3.65;1.13;;;;;;;;;;5067588;28;20029;-72
2022/05/12 00:46:11;;;;;;;5.32;1.30;;;;;;;;;;5057792;28;20611;-71
2022/05/12 00:48:37;;;;;;;2.72;1.10;;;;;;;;;;5059248;28;20466;-72
2022/05/12 00:51:04;;;;;;;2.20;1.15;;;;;;;;;;5061340;28;20032;-72
2022/05/12 00:53:31;;;;;;;2.13;1.20;;;;;;;;;;5067078;28;20096;-73
2022/05/12 00:55:58;;;;;;;1.80;1.30;;;;;;;;;;5060699;28;20040;-73
2022/05/12 00:58:24;;;;;;;2.33;1.17;;;;;;;;;;5060525;28;20034;-72
2022/05/12 01:00:49;;;;;;;1.55;1.10;;;;;;;;;;5059861;28;20389;-71
2022/05/12 01:03:25;;;;;;;2.65;1.35;;;;;;;;;;5066733;28;20501;-73
2022/05/12 01:05:50;;;;;;;1.20;1.10;;;;;;;;;;5061607;28;20098;-72
2022/05/12 01:08:17;;;;;;;1.50;1.10;;;;;;;;;;5054484;28;20510;-72
2022/05/12 01:10:46;;;;;;;1.80;1.20;;;;;;;;;;5060147;28;20371;-73
2022/05/12 01:13:11;;;;;;;2.50;1.10;;;;;;;;;;5059812;28;20374;-73
2022/05/12 01:15:36;;;;;;;1.35;1.10;;;;;;;;;;5067159;28;20028;-73
2022/05/12 01:18:04;;;;;;;3.70;1.35;;;;;;;;;;5065911;28;20028;-72
2022/05/12 01:20:30;;;;;;;1.30;1.00;;;;;;;;;;5064562;28;20179;-72
2022/05/12 01:23:06;;;;;;;1.15;0.90;;;;;;;;;;5062760;28;20367;-72
2022/05/12 01:25:32;;;;;;;2.28;1.02;;;;;;;;;;5062833;28;20406;-73
2022/05/12 01:27:57;;;;;;;2.72;1.10;;;;;;;;;;5067639;28;20313;-73
2022/05/12 01:30:24;;;;;;;1.42;0.98;;;;;;;;;;5066145;28;20371;-73
2022/05/12 01:32:50;;;;;;;3.42;1.08;;;;;;;;;;5060377;28;20586;-72
2022/05/12 01:35:20;;;;;;;2.45;1.30;;;;;;;;;;5066322;28;20112;-73
2022/05/12 01:37:46;;;;;;;1.10;1.00;;;;;;;;;;5066721;28;20037;-72
2022/05/12 01:40:16;;;;;;;1.10;1.00;;;;;;;;;;5064946;28;20336;-71
2022/05/12 01:42:41;;;;;;;1.33;1.23;;;;;;;;;;5065771;28;20544;-72
2022/05/12 01:45:09;;;;;;;2.45;1.20;;;;;;;;;;5066760;28;20024;-73
2022/05/12 01:47:35;;;;;;;1.10;1.00;;;;;;;;;;5063466;28;20024;-72
2022/05/12 01:50:01;;;;;;;1.27;1.10;;;;;;;;;;5063950;28;20423;-73
2022/05/12 01:52:26;;;;;;;4.50;1.30;;;;;;;;;;5067105;28;20035;-71
2022/05/12 01:54:52;;;;;;;2.30;1.17;;;;;;;;;;5067396;28;20450;-73
2022/05/12 01:57:18;;;;;;;4.07;1.20;;;;;;;;;;5067666;28;20420;-73
2022/05/12 01:59:44;;;;;;;2.80;1.27;;;;;;;;;;5063558;28;20062;-72
2022/05/12 02:02:09;;;;;;;2.25;1.30;;;;;;;;;;5058146;28;20033;-73
2022/05/12 02:04:34;;;;;;;1.50;1.30;;;;;;;;;;5063214;28;20021;-73
2022/05/12 02:07:00;;;;;;;2.88;1.10;;;;;;;;;;5064931;28;20483;-71
2022/05/12 02:09:25;;;;;;;2.28;1.10;;;;;;;;;;5064678;28;20028;-73
2022/05/12 02:11:50;;;;;;;2.28;1.13;;;;;;;;;;5064358;28;20024;-73
2022/05/12 02:14:16;;;;;;;3.17;1.33;;;;;;;;;;5067570;28;20355;-71
2022/05/12 02:16:41;;;;;;;2.08;1.20;;;;;;;;;;5066894;28;20024;-73
2022/05/12 02:19:08;;;;;;;2.53;1.27;;;;;;;;;;5065881;28;20033;-71
2022/05/12 02:21:34;;;;;;;4.40;1.80;;;;;;;;;;5065534;28;20123;-73
2022/05/12 02:24:00;;;;;;;1.58;1.20;;;;;;;;;;5066054;28;20543;-72
2022/05/12 02:26:26;;;;;;;1.55;1.20;;;;;;;;;;5067153;28;20123;-72
2022/05/12 02:28:51;;;;;;;2.95;1.17;;;;;;;;;;5060021;28;20305;-73
2022/05/12 02:31:17;;;;;;;1.90;1.10;;;;;;;;;;5063919;28;20032;-72
2022/05/12 02:33:43;;;;;;;2.05;1.10;;;;;;;;;;5055426;28;20029;-72
2022/05/12 02:36:08;;;;;;;4.35;1.20;;;;;;;;;;5065004;28;20024;-73
2022/05/12 02:38:34;;;;;;;1.92;1.20;;;;;;;;;;5056563;28;20040;-72
2022/05/12 02:41:00;;;;;;;2.88;1.20;;;;;;;;;;5061984;28;20032;-73
2022/05/12 02:43:25;;;;;;;1.70;1.23;;;;;;;;;;5058600;28;20418;-72
2022/05/12 02:45:56;;;;;;;2.78;1.10;;;;;;;;;;5063508;28;20039;-72
2022/05/12 02:51:43;;;;;;;1.88;1.40;;;;;;;;;;5063995;28;20044;-72
2022/05/12 02:54:13;;;;;;;2.40;1.40;;;;;;;;;;5056028;28;20021;-72
2022/05/12 02:56:39;;;;;;;5.82;1.50;;;;;;;;;;5055354;28;20029;-72
2022/05/12 02:59:07;;;;;;;2.78;1.35;;;;;;;;;;5054773;28;20367;-73
2022/05/12 03:01:33;;;;;;;1.73;1.25;;;;;;;;;;5065106;28;20474;-72
2022/05/12 03:03:59;;;;;;;2.10;1.42;;;;;;;;;;5064321;28;20135;-72
2022/05/12 03:06:24;;;;;;;2.25;1.42;;;;;;;;;;5065041;28;20034;-72
2022/05/12 03:08:49;;;;;;;2.88;1.58;;;;;;;;;;5049462;28;20036;-73
2022/05/12 03:11:15;;;;;;;6.70;1.50;;;;;;;;;;5064859;28;20028;-72
2022/05/12 03:13:40;;;;;;;2.92;1.35;;;;;;;;;;5063943;28;20579;-72
2022/05/12 03:16:06;;;;;;;3.28;1.40;;;;;;;;;;5065416;28;20447;-73
2022/05/12 03:18:31;;;;;;;5.22;1.60;;;;;;;;;;5063861;28;20527;-72
2022/05/12 03:20:57;;;;;;;4.07;1.50;;;;;;;;;;5055460;28;20086;-72
2022/05/12 03:23:23;;;;;;;5.35;1.77;;;;;;;;;;5046791;28;20064;-72
2022/05/12 03:25:50;;;;;;;3.17;1.60;;;;;;;;;;5048619;28;20029;-72
2022/05/12 03:28:15;;;;;;;3.58;1.70;;;;;;;;;;5065341;28;20020;-73
2022/05/12 03:30:43;;;;;;;3.95;1.50;;;;;;;;;;5063101;28;20024;-72
2022/05/12 03:33:10;;;;;;;3.22;1.38;;;;;;;;;;5064963;28;20031;-71
2022/05/12 03:35:36;;;;;;;2.60;1.42;;;;;;;;;;5064556;28;20064;-73
2022/05/12 03:38:01;;;;;;;2.28;1.42;;;;;;;;;;5062622;28;20474;-73
2022/05/12 03:40:27;;;;;;;2.42;1.58;;;;;;;;;;5059570;28;20028;-72
2022/05/12 03:42:52;;;;;;;4.20;1.40;;;;;;;;;;5064263;28;20521;-72
2022/05/12 03:45:18;;;;;;;2.33;1.50;;;;;;;;;;5062081;28;20051;-72
2022/05/12 03:47:48;;;;;;;1.88;1.50;;;;;;;;;;5061259;28;20028;-72
2022/05/12 03:50:16;;;;;;;2.83;1.40;;;;;;;;;;5058774;28;20405;-72
2022/05/12 03:52:42;;;;;;;5.63;1.83;;;;;;;;;;5056975;28;20020;-72
2022/05/12 03:55:11;;;;;;;3.00;1.63;;;;;;;;;;5065721;28;20027;-72
2022/05/12 03:57:37;;;;;;;4.57;1.42;;;;;;;;;;5062593;28;20559;-73
2022/05/12 04:00:06;;;;;;;1.75;1.17;;;;;;;;;;5061154;28;20028;-72
2022/05/12 04:02:32;;;;;;;6.78;1.23;;;;;;;;;;5064432;28;20024;-73
2022/05/12 04:04:57;;;;;;;1.30;1.02;;;;;;;;;;5066389;28;20044;-72
2022/05/12 04:07:23;;;;;;;3.05;0.98;;;;;;;;;;5068350;28;20107;-72
2022/05/12 04:09:48;;;;;;;2.10;1.10;;;;;;;;;;5053026;28;20162;-72
2022/05/12 04:12:14;;;;;;;2.50;1.05;;;;;;;;;;5069392;28;20020;-72
2022/05/12 04:14:41;;;;;;;2.22;1.17;;;;;;;;;;5068897;28;20753;-72
2022/05/12 04:17:07;;;;;;;3.38;1.00;;;;;;;;;;5068336;28;20053;-72
2022/05/12 04:19:33;;;;;;;2.50;1.17;;;;;;;;;;5063743;28;20032;-72
2022/05/12 04:21:58;;;;;;;2.20;0.90;;;;;;;;;;5063891;28;20066;-72
2022/05/12 04:24:24;;;;;;;1.42;0.90;;;;;;;;;;5053978;28;20024;-72
2022/05/12 04:26:49;;;;;;;1.80;0.90;;;;;;;;;;5066314;28;20100;-72
2022/05/12 04:29:15;;;;;;;4.15;0.90;;;;;;;;;;5064100;28;20386;-72
2022/05/12 04:31:41;;;;;;;1.38;0.90;;;;;;;;;;5068744;28;20034;-72
2022/05/12 04:36:50;;;;;;;4.38;1.10;;;;;;;;;;5065449;28;20508;-71
2022/05/12 04:39:17;;;;;;;2.97;1.10;;;;;;;;;;5068091;28;20107;-72
2022/05/12 04:41:43;;;;;;;1.35;0.93;;;;;;;;;;5068013;28;20032;-72
2022/05/12 04:44:10;;;;;;;3.83;1.20;;;;;;;;;;5067506;28;20491;-72
2022/05/12 04:46:37;;;;;;;2.95;1.10;;;;;;;;;;5060477;28;20036;-72
2022/05/12 04:49:04;;;;;;;2.47;0.98;;;;;;;;;;5057897;28;20028;-72
2022/05/12 04:51:29;;;;;;;1.40;0.90;;;;;;;;;;5058059;28;20434;-72
2022/05/12 04:53:55;;;;;;;3.03;1.20;;;;;;;;;;5057719;28;20115;-72
2022/05/12 04:56:20;;;;;;;4.00;0.80;;;;;;;;;;5056172;28;20036;-72
2022/05/12 04:58:46;;;;;;;2.55;1.15;;;;;;;;;;5057133;28;20032;-73
2022/05/12 05:01:11;;;;;;;1.92;1.10;;;;;;;;;;5057132;28;20066;-72
2022/05/12 05:03:36;;;;;;;2.28;1.13;;;;;;;;;;5071591;28;20027;-73
2022/05/12 05:06:02;;;;;;;1.85;1.10;;;;;;;;;;5087334;28;20028;-73
2022/05/12 05:08:27;;;;;;;4.43;1.17;;;;;;;;;;5076741;28;20029;-72
2022/05/12 05:10:53;;;;;;;3.92;1.10;;;;;;;;;;5066676;28;20517;-73
2022/05/12 05:13:20;;;;;;;2.92;1.10;;;;;;;;;;5064525;28;20024;-72
2022/05/12 05:15:50;;;;;;;2.72;1.00;;;;;;;;;;5060238;28;20021;-72
2022/05/12 05:18:17;;;;;;;3.67;1.38;;;;;;;;;;5067353;28;20056;-73
2022/05/12 05:20:44;;;;;;;3.75;1.00;;;;;;;;;;5062293;28;20024;-72
2022/05/12 05:23:11;;;;;;;4.07;1.13;;;;;;;;;;5061908;28;20029;-72
2022/05/12 05:25:38;;;;;;;1.17;0.88;;;;;;;;;;5067617;28;20493;-73
2022/05/12 05:28:05;;;;;;;2.50;1.23;;;;;;;;;;5064018;28;20367;-73
2022/05/12 05:30:31;;;;;;;2.42;1.00;;;;;;;;;;5067321;28;20090;-73
2022/05/12 05:32:56;;;;;;;3.17;1.08;;;;;;;;;;5063770;28;20036;-74
2022/05/12 05:35:22;;;;;;;2.85;0.95;;;;;;;;;;5066692;28;20071;-73
2022/05/12 05:37:49;;;;;;;0.85;0.80;;;;;;;;;;5067639;28;20024;-74
2022/05/12 05:40:18;;;;;;;1.90;0.90;;;;;;;;;;5067617;28;20028;-72
2022/05/12 05:42:44;;;;;;;3.70;0.95;;;;;;;;;;5067057;28;20311;-73
2022/05/12 05:45:12;;;;;;;5.05;1.30;;;;;;;;;;5067721;28;20020;-71
2022/05/12 05:47:44;;;;;;;2.17;1.10;;;;;;;;;;5067718;28;20059;-73
2022/05/12 05:50:09;;;;;;;2.00;1.00;;;;;;;;;;5066163;28;20373;-72
2022/05/12 05:55:19;;;;;;;2.15;1.00;;;;;;;;;;5063754;28;20094;-71
2022/05/12 05:57:44;;;;;;;2.78;1.25;;;;;;;;;;5067163;28;20032;-72
2022/05/12 06:00:12;;;;;;;2.28;1.02;;;;;;;;;;5056448;28;20043;-73
2022/05/12 06:02:38;;;;;;;1.30;1.20;;;;;;;;;;5058172;28;20031;-73
2022/05/12 06:05:05;;;;;;;2.03;1.00;;;;;;;;;;5065853;28;20032;-73
2022/05/12 06:07:31;;;;;;;2.67;1.02;;;;;;;;;;5066951;28;20043;-73
2022/05/12 06:09:57;;;;;;;2.92;1.02;;;;;;;;;;5063838;28;20039;-73
2022/05/12 06:12:23;;;;;;;3.47;1.00;;;;;;;;;;5065784;28;20028;-74
2022/05/12 06:14:48;;;;;;;3.97;1.08;;;;;;;;;;5054221;28;20081;-73
2022/05/12 06:17:13;;;;;;;4.80;1.20;;;;;;;;;;5065325;28;20167;-73
2022/05/12 06:19:39;;;;;;;1.88;1.00;;;;;;;;;;5064189;28;20062;-71
2022/05/12 06:22:05;;;;;;;1.85;1.00;;;;;;;;;;5065467;28;20044;-73
2022/05/12 06:24:30;;;;;;;2.72;1.05;;;;;;;;;;5065424;28;20040;-71
2022/05/12 06:26:56;;;;;;;2.40;1.20;;;;;;;;;;5067459;28;20278;-71
2022/05/12 06:29:21;;;;;;;2.50;0.90;;;;;;;;;;5065418;28;20111;-72
2022/05/12 06:31:47;;;;;;;5.05;1.23;;;;;;;;;;5062886;28;20221;-73
2022/05/12 06:34:13;;;;;;;3.13;1.00;;;;;;;;;;5064750;28;20013;-72
2022/05/12 06:36:38;;;;;;;3.00;0.90;;;;;;;;;;5063159;28;20119;-72
2022/05/12 06:39:04;;;;;;;2.50;0.90;;;;;;;;;;5066039;28;20444;-72
2022/05/12 06:41:30;;;;;;;3.10;1.08;;;;;;;;;;5066635;28;20560;-75
2022/05/12 06:43:55;;;;;;;2.42;0.88;;;;;;;;;;5057809;28;20050;-74
2022/05/12 06:46:21;;;;;;;2.88;1.10;;;;;;;;;;5065540;28;20409;-75
2022/05/12 06:48:49;;;;;;;5.15;1.30;;;;;;;;;;5066447;28;20021;-72
2022/05/12 06:51:15;;;;;;;2.70;1.20;;;;;;;;;;5065516;28;20097;-73
2022/05/12 06:53:41;;;;;;;1.50;0.90;;;;;;;;;;5066356;28;20389;-72
2022/05/12 06:56:07;;;;;;;2.30;1.40;;;;;;;;;;5065897;28;20544;-74
2022/05/12 06:58:32;;;;;;;2.83;1.05;;;;;;;;;;5065474;28;20044;-73
2022/05/12 07:01:00;;;;;;;3.95;0.90;;;;;;;;;;5062703;28;20052;-73
2022/05/12 07:03:29;;;;;;;2.85;0.90;;;;;;;;;;5065627;28;20051;-72
2022/05/12 07:05:55;;;;;;;2.83;1.05;;;;;;;;;;5065714;28;20028;-72
2022/05/12 07:08:20;;;;;;;3.10;1.08;;;;;;;;;;5063958;28;20016;-72
2022/05/12 07:10:45;;;;;;;1.65;0.90;;;;;;;;;;5065035;28;20032;-72
2022/05/12 07:13:18;;;;;;;6.60;1.02;;;;;;;;;;5053051;28;20054;-73
2022/05/12 07:15:43;;;;;;;;;;;;;;;;;;5066295;28;20025;-75
2022/05/12 07:18:09;;;;;;;3.40;1.20;;;;;;;;;;5064942;28;19916;-71
2022/05/12 07:28:46;;;;;;;3.83;1.10;;;;;;;;;;5066359;28;20472;-70
2022/05/12 07:31:12;;;;;;;2.55;1.00;;;;;;;;;;5065780;28;20060;-71
2022/05/12 07:33:41;;;;;;;3.83;1.10;;;;;;;;;;5061533;28;20056;-75
2022/05/12 07:36:11;;;;;;;2.95;0.80;;;;;;;;;;5065152;28;20024;-73
2022/05/12 07:38:36;;;;;;;4.57;1.48;;;;;;;;;;5065331;28;20090;-72
2022/05/12 07:41:02;;;;;;;3.50;1.20;;;;;;;;;;5063917;28;20032;-73
2022/05/12 07:43:27;;;;;;;4.45;1.60;;;;;;;;;;5064999;28;20063;-74
2022/05/12 07:45:53;;;;;;;2.35;1.10;;;;;;;;;;5065672;28;20127;-75
2022/05/12 07:48:19;;;;;;;4.45;1.35;;;;;;;;;;5066219;28;20486;-78
2022/05/12 07:50:45;;;;;;;2.20;0.93;;;;;;;;;;5065320;28;20036;-77
2022/05/12 07:53:10;;;;;;;2.88;1.02;;;;;;;;;;5065113;28;20048;-74
2022/05/12 07:55:36;;;;;;;3.60;0.95;;;;;;;;;;5066127;28;20109;-76
2022/05/12 07:58:04;;;;;;;2.67;0.80;;;;;;;;;;5065225;28;20328;-74
2022/05/12 08:00:30;;;;;;;4.32;1.10;;;;;;;;;;5065415;28;20032;-73
2022/05/12 08:02:56;;;;;;;3.75;0.90;;;;;;;;;;5065665;28;20470;-71
2022/05/12 08:05:22;;;;;;;3.38;1.08;;;;;;;;;;5064259;28;20081;-73
2022/05/12 08:07:48;;;;;;;2.17;0.93;;;;;;;;;;5068331;28;20024;-74
2022/05/12 08:10:15;;;;;;;3.17;1.00;;;;;;;;;;5091018;28;20136;-72
2022/05/12 08:12:41;;;;;;;3.00;1.02;;;;;;;;;;5086829;28;20040;-72
2022/05/12 08:15:07;;;;;;;3.75;1.27;;;;;;;;;;5066551;28;20024;-72
2022/05/12 08:17:32;;;;;;;1.85;0.95;;;;;;;;;;5064472;28;20028;-71
2022/05/12 08:19:58;;;;;;;3.63;1.10;;;;;;;;;;5085137;22;20040;-74
2022/05/12 08:22:24;;;;;;;2.95;1.08;;;;;;;;;;5045061;28;20076;-73
2022/05/12 08:24:51;;;;;;;2.13;0.90;;;;;;;;;;5045473;28;20326;-76
2022/05/12 08:27:17;;;;;;;2.00;0.80;;;;;;;;;;5045750;28;20082;-76
2022/05/12 08:29:43;;;;;;;2.63;0.90;;;;;;;;;;5045760;28;20017;-75
2022/05/12 08:32:08;;;;;;;2.20;0.80;;;;;;;;;;5044502;28;20017;-76
2022/05/12 08:34:34;;;;;;;2.88;1.00;;;;;;;;;;5050005;28;20032;-79
2022/05/12 08:39:56;;;;;;;3.47;0.88;;;;;;;;;;5044513;28;20036;-73
2022/05/12 08:42:21;;;;;;;2.92;0.90;;;;;;;;;;5051868;28;20075;-73
2022/05/12 08:44:47;;;;;;;2.40;1.10;;;;;;;;;;5047922;28;20056;-74
2022/05/12 08:47:16;;;;;;;2.67;0.98;;;;;;;;;;5054946;28;20039;-74
2022/05/12 08:49:50;;;;;;;3.15;1.50;;;;;;;;;;5045868;28;20162;-74
2022/05/12 08:52:31;;;;;;;1.92;0.85;;;;;;;;;;5047954;28;20020;-75
2022/05/12 08:54:59;;;;;;;2.73;0.97;;;;;;;;;;5050364;28;20049;-75
2022/05/12 08:57:29;;;;;;;1.42;0.60;;;;;;;;;;5049149;28;20025;-75
2022/05/12 08:59:55;;;;;;;4.05;1.13;;;;;;;;;;5048646;28;20505;-75
2022/05/12 09:02:49;;;;;;;2.55;0.70;;;;;;;;;;5059922;28;20040;-74
2022/05/12 09:05:18;;;;;;;1.80;0.82;;;;;;;;;;5037117;28;20025;-74
2022/05/12 09:07:54;;;;;;;4.63;0.80;;;;;;;;;;5029794;28;20487;-73
2022/05/12 09:10:33;;;;;;;2.75;1.10;;;;;;;;;;5028737;28;20025;-77
2022/05/12 09:13:07;;;;;;;5.10;1.13;;;;;;;;;;5055110;28;20537;-74
2022/05/12 09:15:40;;;;;;;2.58;1.00;;;;;;;;;;5062959;28;20119;-73
2022/05/12 09:18:15;;;;;;;3.35;0.90;;;;;;;;;;5049334;28;20108;-75
2022/05/12 09:20:40;;;;;;;2.97;0.90;;;;;;;;;;5060337;28;20490;-74
2022/05/12 09:23:07;;;;;;;3.70;1.10;;;;;;;;;;5068510;28;20168;-75
2022/05/12 09:25:36;;;;;;;3.28;0.82;;;;;;;;;;5068174;28;20486;-74
2022/05/12 09:28:24;;;;;;;1.23;0.60;;;;;;;;;;5068669;28;20032;-75
2022/05/12 09:30:55;;;;;;;1.63;0.70;;;;;;;;;;5064330;28;20032;-74
2022/05/12 09:33:39;;;;;;;1.48;0.55;;;;;;;;;;5049071;28;20033;-73
2022/05/12 09:36:08;;;;;;;2.33;0.60;;;;;;;;;;5056992;28;20044;-73
2022/05/12 09:38:45;;;;;;;2.13;0.80;;;;;;;;;;5063554;28;20063;-73
2022/05/12 09:41:21;;;;;;;1.52;0.70;;;;;;;;;;5048140;28;20052;-74
2022/05/12 09:43:50;;;;;;;4.53;0.80;;;;;;;;;;5042167;28;20552;-74
2022/05/12 09:46:29;;;;;;;3.22;0.75;;;;;;;;;;5044029;28;20063;-76
2022/05/12 09:49:14;;;;;;;1.30;0.60;;;;;;;;;;5049968;28;20217;-76
2022/05/12 09:51:39;;;;;;;2.88;0.90;;;;;;;;;;5048129;28;20032;-75
2022/05/12 09:54:28;;;;;;;2.22;0.90;;;;;;;;;;5047676;28;20103;-75
2022/05/12 09:57:14;;;;;;;1.40;1.00;;;;;;;;;;5050685;28;20632;-76
2022/05/12 09:59:43;;;;;;;2.60;0.98;;;;;;;;;;5048399;28;20064;-74
2022/05/12 10:08:22;;;;;;;3.53;1.10;;;;;;;;;;5047719;28;19919;-73
2022/05/12 10:10:53;;;;;;;2.80;0.90;;;;;;;;;;5058791;28;20029;-75
2022/05/12 10:13:53;;;;;;;2.77;1.00;;;;;;;;;;5048395;28;20128;-76
2022/05/12 10:16:22;;;;;;;3.15;1.10;;;;;;;;;;5046506;28;20265;-74
2022/05/12 10:18:55;;;;;;;5.68;1.35;;;;;;;;;;5056073;28;20104;-76
2022/05/12 10:21:27;;;;;;;2.65;1.10;;;;;;;;;;5049868;28;20132;-75
2022/05/12 10:24:34;;;;;;;1.67;1.02;;;;;;;;;;5027680;28;20034;-75
2022/05/12 10:27:48;;;;;;;4.97;0.90;;;;;;;;;;5021657;28;20120;-74
2022/05/12 10:30:36;;;;;;;3.63;0.90;;;;;;;;;;4974742;28;20700;-73
2022/05/12 10:33:17;;;;;;;2.53;0.93;;;;;;;;;;5040878;28;20386;-75
2022/05/12 10:36:12;;;;;;;2.83;0.93;;;;;;;;;;5037964;28;20029;-75
2022/05/12 10:38:43;;;;;;;3.33;1.02;;;;;;;;;;5038232;28;20025;-76
2022/05/12 10:41:20;;;;;;;1.95;1.00;;;;;;;;;;5030529;28;20036;-75
2022/05/12 10:44:10;;;;;;;3.58;0.95;;;;;;;;;;5026730;28;20076;-74
2022/05/12 10:46:38;;;;;;;1.38;0.90;;;;;;;;;;5039993;28;20573;-75
2022/05/12 10:49:34;;;;;;;2.20;1.00;;;;;;;;;;5044616;28;20033;-74
2022/05/12 10:52:05;;;;;;;4.40;1.55;;;;;;;;;;5045214;28;20163;-75
2022/05/12 10:54:47;;;;;;;3.92;1.00;;;;;;;;;;5041378;28;20040;-75
2022/05/12 10:57:27;;;;;;;5.82;1.20;;;;;;;;;;5042200;28;20621;-75
2022/05/12 11:00:17;;;;;;;4.75;1.30;;;;;;;;;;5046649;28;20407;-73
2022/05/12 11:03:07;;;;;;;4.53;1.00;;;;;;;;;;5046756;28;20081;-72
2022/05/12 11:05:45;;;;;;;3.53;1.25;;;;;;;;;;5046482;28;20436;-74
2022/05/12 11:08:29;;;;;;;3.63;1.20;;;;;;;;;;5040143;28;20025;-75
2022/05/12 11:11:00;;;;;;;2.17;1.00;;;;;;;;;;5037210;28;20018;-76
2022/05/12 11:13:32;;;;;;;2.90;1.00;;;;;;;;;;5036272;28;20029;-77
2022/05/12 11:16:03;;;;;;;3.60;1.00;;;;;;;;;;5027627;28;20032;-74
2022/05/12 11:18:35;;;;;;;2.08;1.00;;;;;;;;;;5026246;28;20025;-75
2022/05/12 11:21:25;;;;;;;3.40;0.90;;;;;;;;;;5026378;28;20543;-74
2022/05/12 11:24:07;;;;;;;3.65;1.15;;;;;;;;;;5025989;28;20021;-75
2022/05/12 11:27:23;;;;;;;4.40;1.00;;;;;;;;;;5026152;28;20045;-72
2022/05/12 11:30:02;;;;;;;3.72;1.40;;;;;;;;;;4983830;28;20404;-73
2022/05/12 11:32:53;;;;;;;2.88;1.00;;;;;;;;;;5041288;28;20444;-73
2022/05/12 11:35:23;;;;;;;4.00;1.40;;;;;;;;;;5036479;28;20033;-73
2022/05/12 11:37:50;;;;;;;3.42;1.23;;;;;;;;;;5026365;28;20116;-76
2022/05/12 11:40:40;;;;;;;4.30;1.30;;;;;;;;;;5028106;28;20267;-75
2022/05/12 11:46:39;;;;;;;2.53;1.15;;;;;;;;;;5033911;28;20454;-72
2022/05/12 11:49:34;;;;;;;5.82;1.65;;;;;;;;;;4988549;28;20099;-72
2022/05/12 11:52:15;;;;;;;3.85;1.42;;;;;;;;;;5041016;28;20078;-74
2022/05/12 11:54:57;;;;;;;5.30;1.70;;;;;;;;;;5046913;28;20025;-74
2022/05/12 11:57:28;;;;;;;4.30;1.87;;;;;;;;;;5043149;28;20040;-71
2022/05/12 12:00:08;;;;;;;8.18;1.38;;;;;;;;;;5045240;28;20079;-72
2022/05/12 12:02:33;;;;;;;2.13;0.80;;;;;;;;;;5046632;28;20025;-72
2022/05/12 12:05:00;;;;;;;1.90;0.93;;;;;;;;;;5045913;28;20362;-72
2022/05/12 12:07:31;;;;;;;3.55;1.40;;;;;;;;;;5043058;28;20284;-73
2022/05/12 12:10:07;;;;;;;3.50;1.03;;;;;;;;;;5031906;28;20487;-73
2022/05/12 12:12:45;;;;;;;2.42;1.00;;;;;;;;;;5026322;28;20042;-68
2022/05/12 12:15:23;;;;;;;3.75;1.02;;;;;;;;;;5025888;28;20407;-73
2022/05/12 12:17:49;;;;;;;2.25;0.85;;;;;;;;;;5026017;28;20083;-74
2022/05/12 12:20:30;;;;;;;3.72;1.63;;;;;;;;;;5025353;28;20321;-73
2022/05/12 12:23:17;;;;;;;1.92;0.90;;;;;;;;;;5024624;28;20270;-76
2022/05/12 12:25:45;;;;;;;3.60;1.50;;;;;;;;;;5025777;28;20029;-71
2022/05/12 12:28:44;;;;;;;2.28;0.98;;;;;;;;;;5029716;28;20021;-72
2022/05/12 12:31:37;;;;;;;2.78;1.30;;;;;;;;;;5047659;28;20043;-71
2022/05/12 12:34:19;;;;;;;4.65;1.00;;;;;;;;;;5048645;28;20092;-74
2022/05/12 12:36:47;;;;;;;2.72;1.00;;;;;;;;;;5049841;28;20104;-74
2022/05/12 12:39:33;;;;;;;1.60;0.73;;;;;;;;;;5049529;28;20607;-74
2022/05/12 12:42:09;;;;;;;3.28;0.90;;;;;;;;;;5049799;28;20051;-73
2022/05/12 12:44:41;;;;;;;3.67;1.15;;;;;;;;;;5049762;28;20037;-72
2022/05/12 12:47:28;;;;;;;1.98;0.82;;;;;;;;;;5049602;28;20263;-71
2022/05/12 12:50:09;;;;;;;2.60;0.98;;;;;;;;;;5047499;28;20064;-74
2022/05/12 12:52:43;;;;;;;2.40;0.90;;;;;;;;;;5048861;28;20025;-73
2022/05/12 12:58:04;;;;;;;2.47;0.80;;;;;;;;;;5048830;28;20048;-75
2022/05/12 13:00:36;;;;;;;2.38;0.65;;;;;;;;;;5047392;28;20031;-74
2022/05/12 13:03:03;;;;;;;;;;;;;;;;;;5049736;28;20128;-72
2022/05/12 13:05:31;;;;;;;9.05;1.10;;;;;;;;;;5049066;28;19912;-73
2022/05/12 13:07:58;;;;;;;1.67;0.88;;;;;;;;;;5048669;28;20017;-74
2022/05/12 13:10:24;;;;;;;3.70;1.00;;;;;;;;;;5048718;28;20021;-73
2022/05/12 13:13:05;;;;;;;2.60;0.90;;;;;;;;;;5048933;28;20025;-74
2022/05/12 13:15:32;;;;;;;3.80;1.05;;;;;;;;;;5049562;28;20087;-72
2022/05/12 13:18:08;;;;;;;2.22;1.00;;;;;;;;;;5045497;28;20029;-74
2022/05/12 13:20:40;;;;;;;6.07;1.30;;;;;;;;;;5038988;28;20255;-75
2022/05/12 13:23:09;;;;;;;2.70;1.02;;;;;;;;;;5028251;28;20547;-75
2022/05/12 13:25:43;;;;;;;2.45;0.90;;;;;;;;;;5029042;28;20178;-70
2022/05/12 13:28:16;;;;;;;3.30;1.00;;;;;;;;;;5028512;28;20036;-72
2022/05/12 13:30:47;;;;;;;3.75;1.20;;;;;;;;;;5031392;28;20048;-73
2022/05/12 13:33:23;;;;;;;4.65;1.25;;;;;;;;;;5044699;28;20103;-72
2022/05/12 13:36:01;;;;;;;1.42;0.75;;;;;;;;;;5048562;28;20053;-72
2022/05/12 13:38:29;;;;;;;1.05;0.70;;;;;;;;;;5042247;28;20032;-72
2022/05/12 13:40:58;;;;;;;2.97;0.70;;;;;;;;;;5039805;28;20021;-74
2022/05/12 13:43:47;;;;;;;2.83;1.00;;;;;;;;;;5044175;28;20036;-72
2022/05/12 13:46:15;;;;;;;2.25;1.05;;;;;;;;;;5021914;28;20029;-71
2022/05/12 13:49:05;;;;;;;2.72;1.00;;;;;;;;;;5028692;28;20033;-73
2022/05/12 13:51:46;;;;;;;4.20;1.27;;;;;;;;;;5027655;28;20033;-74
2022/05/12 13:54:36;;;;;;;8.05;1.30;;;;;;;;;;5030565;28;20048;-75
2022/05/12 13:57:32;;;;;;;3.53;1.00;;;;;;;;;;5038459;28;20409;-73
2022/05/12 14:00:00;;;;;;;1.30;0.70;;;;;;;;;;5027599;28;20117;-71
2022/05/12 14:02:31;;;;;;;2.60;0.70;;;;;;;;;;5027798;28;20040;-74
2022/05/12 14:05:01;;;;;;;3.03;0.95;;;;;;;;;;5028128;28;20032;-70
2022/05/12 14:07:29;;;;;;;2.90;1.00;;;;;;;;;;5027817;28;20065;-72
2022/05/12 14:09:57;;;;;;;3.25;1.40;;;;;;;;;;5026821;28;20410;-72
2022/05/12 14:12:26;;;;;;;4.40;1.20;;;;;;;;;;5027401;28;20030;-75
2022/05/12 14:20:27;;;;;;;1.77;0.90;;;;;;;;;;5051143;22;20056;-72
2022/05/12 14:22:53;;;;;;;1.90;0.90;;;;;;;;;;5067060;28;20446;-76
2022/05/12 14:25:18;;;;;;;4.18;1.27;;;;;;;;;;5067638;28;20063;-75
2022/05/12 14:27:44;;;;;;;2.30;1.08;;;;;;;;;;5066716;28;20485;-74
2022/05/12 14:30:10;;;;;;;2.97;1.45;;;;;;;;;;5067111;28;20035;-73
2022/05/12 14:32:50;;;;;;;6.82;1.15;;;;;;;;;;5066638;28;20437;-73
2022/05/12 14:35:21;;;;;;;6.40;1.20;;;;;;;;;;5067055;28;20027;-78
2022/05/12 14:37:49;;;;;;;4.25;0.95;;;;;;;;;;5066560;28;20395;-72
2022/05/12 14:40:20;;;;;;;3.25;1.20;;;;;;;;;;5066638;28;20028;-70
2022/05/12 14:42:45;;;;;;;2.78;1.50;;;;;;;;;;5066998;28;20486;-73
2022/05/12 14:45:12;;;;;;;2.20;0.90;;;;;;;;;;5065051;28;20044;-73
2022/05/12 14:47:38;;;;;;;3.28;1.20;;;;;;;;;;5066533;28;20032;-76
2022/05/12 14:50:04;;;;;;;3.38;1.60;;;;;;;;;;5066278;28;20028;-73
2022/05/12 14:52:29;;;;;;;2.88;1.13;;;;;;;;;;5066839;28;20029;-72
2022/05/12 14:54:57;;;;;;;6.20;1.58;;;;;;;;;;5066896;28;20967;-74
2022/05/12 14:57:23;;;;;;;2.80;1.00;;;;;;;;;;5066827;28;20060;-77
2022/05/12 14:59:49;;;;;;;4.38;1.13;;;;;;;;;;5065855;28;20031;-73
2022/05/12 15:02:31;;;;;;;6.65;1.48;;;;;;;;;;5066842;28;20029;-74
2022/05/12 15:04:57;;;;;;;4.95;1.38;;;;;;;;;;5066645;28;20032;-71
2022/05/12 15:07:22;;;;;;;4.53;0.98;;;;;;;;;;5066639;28;20142;-72
2022/05/12 15:09:48;;;;;;;2.55;1.10;;;;;;;;;;5065742;28;20112;-74
2022/05/12 15:12:14;;;;;;;3.10;0.70;;;;;;;;;;5048346;28;20543;-72
2022/05/12 15:14:42;;;;;;;3.25;1.30;;;;;;;;;;5066673;28;20020;-76
2022/05/12 15:17:08;;;;;;;2.78;1.08;;;;;;;;;;5064518;28;20070;-74
2022/05/12 15:19:35;;;;;;;3.30;1.27;;;;;;;;;;5066239;28;20436;-72
2022/05/12 15:22:01;;;;;;;4.50;1.20;;;;;;;;;;5065855;28;20604;-72
2022/05/12 15:24:31;;;;;;;1.65;0.90;;;;;;;;;;5065881;28;20259;-78
2022/05/12 15:26:59;;;;;;;1.20;0.90;;;;;;;;;;5066610;28;20024;-72
2022/05/12 15:29:24;;;;;;;4.35;0.98;;;;;;;;;;5065861;28;20718;-73
2022/05/12 15:31:49;;;;;;;2.22;1.10;;;;;;;;;;5065726;28;20035;-73
2022/05/12 15:34:15;;;;;;;4.13;1.58;;;;;;;;;;5066318;28;20380;-73
2022/05/12 15:36:43;;;;;;;3.22;0.80;;;;;;;;;;5065733;28;20040;-75
2022/05/12 15:39:13;;;;;;;1.77;1.00;;;;;;;;;;5065381;28;20102;-76